Time;durP1;ratioP1;P1;durP2;ratioP2;P2;SDS_P1;SDS_P2;PMS_P1;PMS_P2;Temp;Humidity;BMP_temperature;BMP_pressure;BME280_temperature;BME280_humidity;BME280_pressure;Samples;Min_cycle;Max_cycle;Signal;HPM_P1;HPM_P2
2023/01/11 05:01:18;;;;;;;2.38;1.40;;;9.90;99.90;;;9.15;100.00;100410.91;5566564;23;20053;-72
2023/01/11 05:03:53;;;;;;;3.35;1.58;;;10.80;99.90;;;9.16;100.00;100411.78;4949489;28;20105;-72
2023/01/11 05:06:21;;;;;;;2.00;1.52;;;10.00;99.90;;;9.16;100.00;100415.28;4942185;28;20065;-73
2023/01/11 05:08:49;;;;;;;1.42;1.30;;;10.00;99.90;;;9.18;100.00;100410.00;4936327;28;20047;-72
2023/01/11 05:11:19;;;;;;;3.97;1.73;;;10.00;99.90;;;9.17;100.00;100403.88;4933193;29;20111;-72
2023/01/11 05:13:46;;;;;;;3.50;1.48;;;10.00;99.90;;;9.24;100.00;100401.16;4890554;29;20067;-72
2023/01/11 05:16:20;;;;;;;2.20;1.42;;;10.10;99.90;;;9.27;100.00;100404.56;4914247;29;20059;-71
2023/01/11 05:18:51;;;;;;;4.97;2.50;;;11.50;99.90;;;9.24;100.00;100386.25;4930664;29;20094;-72
2023/01/11 05:21:22;;;;;;;8.13;4.07;;;10.10;99.90;;;9.27;100.00;100383.56;4931323;23;20416;-77
2023/01/11 05:23:51;;;;;;;4.50;2.40;;;10.10;99.90;;;9.27;100.00;100386.19;4949934;28;20043;-75
2023/01/11 05:26:26;;;;;;;8.18;4.57;;;10.40;99.90;;;9.30;100.00;100382.66;4917690;29;20081;-75
2023/01/11 05:29:00;;;;;;;5.68;2.20;;;10.90;99.90;;;9.36;100.00;100378.16;4950650;28;20507;-76
2023/01/11 05:31:27;;;;;;;5.00;2.38;;;10.20;99.90;;;9.38;100.00;100386.03;4919386;29;20471;-75
2023/01/11 05:34:01;;;;;;;4.25;1.70;;;10.40;99.90;;;9.37;100.00;100376.41;4950963;29;20127;-77
2023/01/11 05:36:28;;;;;;;3.22;1.33;;;10.10;99.90;;;9.41;100.00;100380.72;4950859;28;20051;-76
2023/01/11 05:38:56;;;;;;;2.63;1.42;;;10.70;99.90;;;9.42;100.00;100381.56;4949926;29;20400;-74
2023/01/11 05:41:25;;;;;;;2.83;1.45;;;10.20;99.90;;;9.44;100.00;100370.13;4945089;29;20043;-76
2023/01/11 05:46:43;;;;;;;2.22;1.13;;;10.30;99.90;;;9.56;100.00;100369.03;4941021;28;20054;-75
2023/01/11 05:49:12;;;;;;;3.33;1.60;;;11.20;99.90;;;9.57;100.00;100364.66;4941305;29;20545;-75
2023/01/11 05:51:40;;;;;;;2.25;1.35;;;10.30;99.90;;;9.57;100.00;100357.63;4921830;28;20486;-75
2023/01/11 05:54:13;;;;;;;2.45;1.10;;;10.40;99.90;;;9.62;100.00;100358.41;4960565;28;20110;-76
2023/01/11 05:56:41;;;;;;;2.55;1.30;;;10.40;99.90;;;9.63;100.00;100360.13;4924874;29;20134;-75
2023/01/11 05:59:09;;;;;;;2.17;1.17;;;10.40;99.90;;;9.63;100.00;100352.25;4930260;29;20054;-76
2023/01/11 06:01:37;;;;;;;1.83;1.30;;;10.40;99.90;;;9.64;100.00;100346.09;4920930;29;20079;-75
2023/01/11 06:04:04;;;;;;;3.33;1.55;;;10.50;99.90;;;9.68;100.00;100349.53;4946837;29;20042;-76
2023/01/11 06:06:32;;;;;;;2.53;1.20;;;10.40;99.90;;;9.75;100.00;100350.25;4931921;29;20054;-75
2023/01/11 06:08:59;;;;;;;3.28;1.40;;;10.40;99.90;;;9.77;100.00;100351.97;4949111;29;20043;-75
2023/01/11 06:11:27;;;;;;;3.83;2.30;;;10.50;99.90;;;9.77;100.00;100344.06;4949964;28;20059;-75
2023/01/11 06:13:54;;;;;;;1.27;1.10;;;10.50;99.90;;;9.77;100.00;100348.50;4929581;29;20427;-76
2023/01/11 06:16:22;;;;;;;2.50;1.25;;;10.60;99.90;;;9.77;100.00;100346.72;4931922;29;20055;-75
2023/01/11 06:18:52;;;;;;;2.10;1.63;;;10.60;99.90;;;9.81;100.00;100342.25;4909449;29;20055;-75
2023/01/11 06:21:20;;;;;;;3.08;2.88;;;10.60;99.90;;;9.85;100.00;100350.94;4920845;29;20047;-75
2023/01/11 06:23:49;;;;;;;3.35;1.30;;;10.70;99.90;;;9.86;100.00;100344.78;4947975;29;20047;-77
2023/01/11 06:26:20;;;;;;;1.65;1.40;;;10.60;99.90;;;9.86;100.00;100339.53;4929000;29;20146;-75
2023/01/11 06:28:48;;;;;;;1.55;1.20;;;11.00;99.90;;;9.85;100.00;100337.81;4929131;29;20047;-75
2023/01/11 06:31:17;;;;;;;2.13;1.85;;;10.70;99.90;;;9.87;100.00;100336.00;4941060;29;20251;-75
2023/01/11 06:33:45;;;;;;;2.03;1.50;;;11.60;99.90;;;9.90;100.00;100328.91;4944558;28;20048;-75
2023/01/11 06:36:14;;;;;;;10.02;9.02;;;10.70;99.90;;;9.89;100.00;100335.06;4930027;29;20052;-74
2023/01/11 06:38:44;;;;;;;3.88;3.47;;;10.70;99.90;;;9.91;100.00;100322.78;4917202;29;20058;-75
2023/01/11 06:41:11;;;;;;;1.85;1.70;;;10.70;99.90;;;9.93;100.00;100322.72;4901414;29;20635;-75
2023/01/11 06:43:40;;;;;;;2.00;1.80;;;10.70;99.90;;;9.99;100.00;100322.59;4900655;29;20511;-76
2023/01/11 06:46:16;;;;;;;2.05;1.15;;;10.80;99.90;;;10.00;100.00;100308.56;4931956;29;20039;-76
2023/01/11 06:48:43;;;;;;;5.22;3.50;;;10.80;99.90;;;10.00;100.00;100312.94;4932225;29;20047;-74
2023/01/11 06:51:12;;;;;;;4.53;2.58;;;12.00;99.90;;;9.97;100.00;100294.63;4935572;28;20071;-75
2023/01/11 06:53:41;;;;;;;2.63;1.75;;;11.50;99.90;;;10.00;100.00;100300.69;4967325;28;20061;-77
2023/01/11 06:56:19;;;;;;;1.50;1.10;;;10.80;99.90;;;10.02;100.00;100298.88;4931414;29;20504;-77
2023/01/11 06:58:46;;;;;;;1.27;1.00;;;10.80;99.90;;;10.02;100.00;100295.38;4917001;29;20055;-76
2023/01/11 07:01:16;;;;;;;2.05;1.38;;;11.20;99.90;;;10.01;100.00;100291.00;4916607;29;20054;-75
2023/01/11 07:03:44;;;;;;;3.90;3.50;;;11.00;99.90;;;10.03;100.00;100294.47;4915064;29;20055;-75
2023/01/11 07:06:12;;;;;;;1.98;1.00;;;10.80;99.90;;;10.06;100.00;100286.50;4949461;28;20043;-75
2023/01/11 07:08:42;;;;;;;1.13;1.00;;;10.80;99.90;;;10.07;100.00;100299.63;4936086;29;20043;-75
2023/01/11 07:11:09;;;;;;;2.92;2.53;;;10.90;99.90;;;10.04;100.00;100293.56;4933677;29;20631;-75
2023/01/11 07:13:37;;;;;;;1.70;1.60;;;10.80;99.90;;;10.05;100.00;100290.91;4918302;29;20115;-75
2023/01/11 07:16:04;;;;;;;2.80;1.90;;;11.50;99.90;;;10.04;100.00;100288.31;4918169;29;20082;-74
2023/01/11 07:18:32;;;;;;;1.40;1.20;;;10.80;99.90;;;10.06;100.00;100283.88;4933976;29;20075;-75
2023/01/11 07:21:02;;;;;;;3.17;1.70;;;10.80;99.90;;;10.07;100.00;100285.63;4943748;29;20550;-76
2023/01/11 07:23:29;;;;;;;15.55;14.13;;;10.90;99.90;;;10.07;100.00;100277.75;4963638;29;20055;-76
2023/01/11 07:25:56;;;;;;;3.80;3.42;;;10.90;99.90;;;10.09;100.00;100281.19;4936349;29;20067;-75
2023/01/11 07:28:23;;;;;;;3.17;2.15;;;10.90;99.90;;;10.11;100.00;100279.41;4949434;29;20063;-75
2023/01/11 07:30:51;;;;;;;4.72;1.50;;;11.20;99.90;;;10.16;100.00;100284.56;4933731;29;20511;-75
2023/01/11 07:33:25;;;;;;;3.92;3.53;;;10.90;99.90;;;10.14;100.00;100281.94;4918048;28;20130;-75
2023/01/11 07:35:53;;;;;;;1.50;1.38;;;10.90;99.90;;;10.13;100.00;100282.84;4914627;29;20063;-75
2023/01/11 07:38:22;;;;;;;1.15;1.08;;;10.90;99.90;;;10.18;100.00;100280.97;4914280;29;20052;-76
2023/01/11 07:40:49;;;;;;;1.80;1.48;;;10.90;99.90;;;10.18;100.00;100280.97;4929958;29;20135;-76
2023/01/11 07:43:18;;;;;;;3.10;1.58;;;11.00;99.90;;;10.17;100.00;100276.59;4929657;29;20059;-77
2023/01/11 07:45:48;;;;;;;1.85;1.38;;;11.00;99.90;;;10.21;100.00;100280.03;4915857;29;20046;-76
2023/01/11 07:48:23;;;;;;;;;;;12.10;99.90;;;10.21;100.00;100283.50;4900242;29;20067;-75
2023/01/11 07:50:52;;;;;;;2.00;1.33;;;11.00;99.90;;;10.24;100.00;100284.38;4915619;29;20296;-76
2023/01/11 07:53:19;;;;;;;1.75;1.60;;;11.00;99.90;;;10.24;100.00;100287.00;4915568;29;20052;-77
2023/01/11 07:55:47;;;;;;;1.35;1.00;;;11.00;99.90;;;10.22;100.00;100287.03;4922606;29;20459;-76
2023/01/11 07:58:15;;;;;;;3.13;2.00;;;11.10;99.90;;;10.24;100.00;100293.09;4950771;29;20138;-77
2023/01/11 08:00:44;;;;;;;2.03;1.50;;;11.00;99.90;;;10.25;100.00;100305.34;4950560;28;20130;-77
2023/01/11 08:03:12;;;;;;;4.13;2.80;;;11.10;99.90;;;10.27;100.00;100300.91;4951654;28;20043;-77
2023/01/11 08:05:39;;;;;;;2.13;1.33;;;11.30;99.90;;;10.26;100.00;100296.56;4934743;29;20134;-77
2023/01/11 08:08:07;;;;;;;1.20;1.10;;;11.10;99.90;;;10.29;100.00;100309.63;4918839;29;20055;-77
2023/01/11 08:10:34;;;;;;;0.93;0.82;;;11.10;99.90;;;10.27;100.00;100310.59;4934643;29;20103;-77
2023/01/11 08:15:47;;;;;;;1.83;1.35;;;11.10;99.90;;;10.32;100.00;100301.69;4950027;29;20590;-77
2023/01/11 08:18:16;;;;;;;2.92;1.20;;;11.10;99.90;;;10.28;100.00;100301.78;4947162;29;20087;-77
2023/01/11 08:20:44;;;;;;;2.38;1.05;;;12.20;99.90;;;10.28;100.00;100299.16;4943806;28;20841;-77
2023/01/11 08:23:11;;;;;;;2.33;1.27;;;11.10;99.90;;;10.31;100.00;100305.22;4929204;29;20114;-77
2023/01/11 08:25:38;;;;;;;1.27;0.98;;;11.10;99.90;;;10.28;100.00;100309.69;4945383;28;20051;-76
2023/01/11 08:28:06;;;;;;;3.85;2.00;;;11.10;99.90;;;10.30;100.00;100313.13;4932886;29;20051;-76
2023/01/11 08:30:35;;;;;;;1.35;1.10;;;11.10;99.90;;;10.33;100.00;100313.06;4950120;28;20047;-75
2023/01/11 08:33:04;;;;;;;1.25;1.15;;;12.60;99.90;;;10.34;100.00;100309.53;4922578;29;20051;-76
2023/01/11 08:35:37;;;;;;;2.08;1.02;;;11.10;99.90;;;10.34;100.00;100312.16;4930640;29;20146;-75
2023/01/11 08:38:05;;;;;;;1.42;1.30;;;11.10;99.90;;;10.35;100.00;100319.13;4930823;29;20048;-75
2023/01/11 08:40:32;;;;;;;2.03;1.02;;;11.10;99.90;;;10.37;100.00;100304.19;4916011;29;20047;-76
2023/01/11 08:42:59;;;;;;;1.13;1.02;;;11.10;99.90;;;10.43;100.00;100313.72;4899658;29;20048;-75
2023/01/11 08:45:27;;;;;;;1.38;1.27;;;11.20;99.90;;;10.41;100.00;100307.66;4913441;29;20048;-76
2023/01/11 08:47:58;;;;;;;1.20;0.80;;;11.20;99.90;;;10.39;100.00;100314.69;4922624;29;20050;-76
2023/01/11 08:50:25;;;;;;;1.58;1.20;;;11.20;99.90;;;10.44;100.00;100318.09;4940988;28;20043;-76
2023/01/11 08:52:57;;;;;;;3.20;2.38;;;11.30;99.90;;;10.47;100.00;100307.50;4946142;29;20135;-76
2023/01/11 08:55:24;;;;;;;3.72;3.03;;;11.20;99.90;;;10.47;100.00;100312.78;4932420;29;20512;-76
2023/01/11 08:57:51;;;;;;;3.00;2.70;;;11.30;99.90;;;10.41;100.00;100302.38;4930590;29;20107;-78
2023/01/11 09:00:22;;;;;;;1.77;1.55;;;11.20;99.90;;;10.43;100.00;100308.47;4913649;29;20542;-76
2023/01/11 09:02:48;;;;;;;;;;;11.20;99.90;;;10.47;100.00;100305.72;4941260;29;20054;-76
2023/01/11 09:05:16;;;;;;;3.35;1.60;;;12.00;99.90;;;10.43;100.00;100305.84;4918014;29;19930;-76
2023/01/11 09:07:44;;;;;;;2.40;1.33;;;11.20;99.90;;;10.45;100.00;100311.91;4948329;29;20039;-76
2023/01/11 09:10:11;;;;;;;1.40;1.30;;;11.20;99.90;;;10.41;100.00;100312.91;4942976;28;20055;-77
2023/01/11 09:12:38;;;;;;;1.40;1.30;;;11.20;99.90;;;10.44;100.00;100312.81;4945034;29;20047;-77
2023/01/11 09:15:06;;;;;;;1.90;1.65;;;11.20;99.90;;;10.41;100.00;100311.16;4949412;28;20049;-76
2023/01/11 09:17:33;;;;;;;2.20;1.30;;;11.20;99.90;;;10.43;100.00;100316.34;4933465;29;20047;-77
2023/01/11 09:20:00;;;;;;;1.60;1.27;;;11.30;99.90;;;10.39;100.00;100312.94;4918104;28;20078;-77
2023/01/11 09:22:28;;;;;;;1.55;1.30;;;11.20;99.90;;;10.41;100.00;100310.28;4936077;29;20048;-77
2023/01/11 09:24:57;;;;;;;1.70;1.40;;;11.20;99.90;;;10.44;100.00;100320.72;4949079;28;20070;-76
2023/01/11 09:27:25;;;;;;;0.98;0.98;;;11.20;99.90;;;10.45;100.00;100327.69;4933404;29;20055;-76
2023/01/11 09:29:55;;;;;;;1.40;1.00;;;11.20;99.90;;;10.45;100.00;100354.00;4932955;28;20059;-76
2023/01/11 09:32:22;;;;;;;1.27;1.13;;;11.20;99.90;;;10.47;100.00;100331.19;4947403;28;20055;-76
2023/01/11 09:34:52;;;;;;;1.42;1.20;;;12.20;99.90;;;10.47;100.00;100339.06;4952203;29;20039;-79
2023/01/11 09:37:21;;;;;;;3.50;1.80;;;11.20;99.90;;;10.44;100.00;100340.00;4964393;29;20043;-78
2023/01/11 09:39:51;;;;;;;2.33;2.10;;;11.20;99.90;;;10.46;100.00;100340.84;4947240;29;20146;-77
2023/01/11 09:42:38;;;;;;;3.10;2.33;;;11.20;99.90;;;10.40;100.00;100350.59;4965692;28;20487;-76
2023/01/11 09:45:27;;;;;;;4.30;2.83;;;11.20;99.90;;;10.38;100.00;100337.50;4946910;29;20035;-77
2023/01/11 09:48:29;;;;;;;4.45;3.88;;;11.20;99.90;;;10.42;100.00;100348.81;4965704;29;20043;-78
2023/01/11 09:50:57;;;;;;;5.07;3.15;;;11.70;99.90;;;10.39;100.00;100340.97;4945709;29;20067;-78
2023/01/11 09:53:35;;;;;;;3.03;2.38;;;11.20;99.90;;;10.35;100.00;100354.22;4944365;29;20047;-77
2023/01/11 09:56:10;;;;;;;4.00;2.38;;;11.10;99.90;;;10.41;100.00;100349.72;4960238;28;20047;-77
2023/01/11 09:59:08;;;;;;;1.60;1.45;;;11.20;99.90;;;10.33;100.00;100345.50;4954485;29;20081;-78
2023/01/11 10:01:46;;;;;;;2.40;1.85;;;11.10;99.90;;;10.24;100.00;100353.59;4934934;29;20418;-75
2023/01/11 10:04:47;;;;;;;2.00;1.50;;;11.10;99.90;;;10.23;100.00;100357.13;4966353;28;20694;-76
2023/01/11 10:08:23;;;;;;;2.55;1.95;;;11.00;99.90;;;10.19;100.00;100358.94;4953925;28;20138;-76
2023/01/11 10:11:48;;;;;;;1.52;1.33;;;10.90;99.90;;;10.25;100.00;100357.94;4900102;29;20096;-78
2023/01/11 10:15:14;;;;;;;3.00;1.52;;;10.90;99.90;;;10.18;100.00;100351.09;4915436;29;20070;-76
2023/01/11 10:18:39;;;;;;;2.22;1.85;;;10.90;99.90;;;10.15;100.00;100348.56;4921933;29;20051;-76
2023/01/11 10:21:42;;;;;;;1.73;1.45;;;10.90;99.90;;;10.19;100.00;100343.16;4965931;28;20071;-78
2023/01/11 10:24:29;;;;;;;1.98;1.40;;;10.90;99.90;;;10.21;100.00;100346.63;4939050;29;20047;-77
2023/01/11 10:27:02;;;;;;;2.97;2.00;;;10.90;99.90;;;10.20;100.00;100338.78;4969672;28;20125;-76
2023/01/11 10:29:41;;;;;;;2.28;1.60;;;10.90;99.90;;;10.19;100.00;100344.94;4951423;29;20519;-76
2023/01/11 10:32:33;;;;;;;1.38;1.05;;;10.90;99.90;;;10.21;100.00;100346.63;4948303;29;20416;-77
2023/01/11 10:35:28;;;;;;;1.80;1.48;;;10.90;99.90;;;10.19;100.00;100358.94;4919111;29;20052;-78
2023/01/11 10:38:15;;;;;;;3.08;1.50;;;10.90;99.90;;;10.10;100.00;100355.66;4921859;29;20048;-76
2023/01/11 10:41:32;;;;;;;2.58;1.70;;;10.90;99.90;;;10.11;100.00;100353.00;4935055;29;20133;-76
2023/01/11 10:44:36;;;;;;;3.10;2.40;;;10.80;99.90;;;10.01;100.00;100359.34;4950504;29;20063;-77
2023/01/11 10:47:10;;;;;;;2.50;2.17;;;11.20;99.90;;;10.04;100.00;100356.66;4918607;29;20052;-77
2023/01/11 10:49:57;;;;;;;5.63;3.60;;;12.10;99.90;;;9.96;100.00;100366.47;4918565;29;20052;-77
2023/01/11 10:52:57;;;;;;;3.22;2.50;;;10.70;99.90;;;9.90;100.00;100362.22;4918184;29;20075;-76
2023/01/11 10:56:00;;;;;;;1.38;1.25;;;10.70;99.90;;;9.93;100.00;100363.03;4918113;29;20052;-77
2023/01/11 10:58:52;;;;;;;1.95;1.52;;;10.70;99.90;;;9.90;100.00;100357.81;4933599;29;20155;-77
2023/01/11 11:01:38;;;;;;;1.92;1.40;;;10.60;99.90;;;9.91;100.00;100364.84;4932441;29;20520;-78
2023/01/11 11:04:38;;;;;;;1.38;1.17;;;10.70;99.90;;;9.90;100.00;100363.06;4953056;28;20043;-76
2023/01/11 11:07:54;;;;;;;3.60;1.60;;;10.70;99.90;;;9.95;100.00;100359.50;4951966;29;20495;-76
2023/01/11 11:10:59;;;;;;;4.05;2.40;;;10.70;99.90;;;10.00;100.00;100366.41;4948620;28;20465;-77
2023/01/11 11:13:54;;;;;;;1.23;1.10;;;10.70;99.90;;;10.01;100.00;100357.59;4941188;29;20443;-77
2023/01/11 11:16:21;;;;;;;2.20;1.55;;;10.70;99.90;;;9.98;100.00;100364.69;4935472;29;20067;-76
2023/01/11 11:18:54;;;;;;;2.72;1.33;;;10.70;99.90;;;10.00;100.00;100362.88;4952947;28;20047;-77
2023/01/11 11:21:28;;;;;;;2.05;1.63;;;10.70;99.90;;;9.91;100.00;100358.69;4951744;29;20043;-77
2023/01/11 11:24:18;;;;;;;3.05;1.40;;;10.70;99.90;;;-146.68;100.00;58542.28;4920198;29;20086;-77
2023/01/11 11:26:56;;;;;;;1.80;1.40;;;10.70;99.90;;;-146.68;100.00;58542.28;4938203;29;20047;-76
2023/01/11 11:29:29;;;;;;;2.83;1.30;;;10.60;99.90;;;-146.68;100.00;58542.28;4953626;29;20500;-76
2023/01/11 11:31:59;;;;;;;2.05;1.45;;;10.80;99.90;;;-146.68;100.00;58542.28;4970846;28;20118;-75
2023/01/11 11:34:27;;;;;;;;;;;10.60;99.90;;;-146.68;100.00;58542.28;4940215;28;20147;-77
2023/01/11 11:36:58;;;;;;;4.38;2.13;;;10.60;99.90;;;-146.68;100.00;58542.28;4922429;29;19930;-76
2023/01/11 11:39:31;;;;;;;3.40;2.28;;;10.50;99.90;;;-146.68;100.00;58542.28;4929905;29;20797;-76
2023/01/11 11:42:16;;;;;;;2.17;1.55;;;10.50;99.90;;;-146.68;100.00;58542.28;4949068;28;20432;-78
2023/01/11 11:44:43;;;;;;;1.88;1.70;;;10.50;99.90;;;-146.68;100.00;58542.28;4956267;28;20070;-76
2023/01/11 11:47:15;;;;;;;3.22;2.63;;;10.40;99.90;;;-146.68;100.00;58542.28;4956172;28;20434;-76
2023/01/11 11:49:43;;;;;;;3.95;2.60;;;10.50;99.90;;;-146.68;100.00;58542.28;4957051;28;20051;-76
2023/01/11 11:52:16;;;;;;;3.95;2.78;;;10.50;99.90;;;-146.68;100.00;58542.28;4949637;28;20055;-79
2023/01/11 11:54:55;;;;;;;7.68;2.47;;;10.50;99.90;;;-146.68;100.00;58542.28;4964560;28;20058;-76
2023/01/11 11:57:27;;;;;;;3.13;2.42;;;10.60;99.90;;;-146.68;100.00;58542.28;4941693;28;20055;-76
2023/01/11 12:00:33;;;;;;;5.00;3.17;;;10.60;99.90;;;-146.68;100.00;58542.28;4942205;28;20499;-77
2023/01/11 12:03:16;;;;;;;8.95;3.40;;;10.60;99.90;;;-146.68;100.00;58542.28;4946516;29;20043;-74
2023/01/11 12:06:04;;;;;;;4.50;3.45;;;10.60;99.90;;;-146.68;100.00;58542.28;4933539;29;20379;-73
2023/01/11 12:08:34;;;;;;;4.75;3.10;;;10.60;99.90;;;-146.68;100.00;58542.28;4934544;29;20098;-73
2023/01/11 12:11:06;;;;;;;2.72;2.22;;;10.70;99.90;;;-146.68;100.00;58542.28;4950256;28;20495;-73
2023/01/11 12:13:38;;;;;;;3.13;2.70;;;10.60;99.90;;;-146.68;100.00;58542.28;4949547;29;20423;-74
2023/01/11 12:16:19;;;;;;;5.03;2.78;;;10.60;99.90;;;-146.68;100.00;58542.28;4934010;29;20490;-74
2023/01/11 12:18:47;;;;;;;6.00;2.60;;;10.60;99.90;;;-146.68;100.00;58542.28;4950439;29;20062;-73
2023/01/11 12:21:22;;;;;;;7.75;3.10;;;10.60;99.90;;;-146.68;100.00;58542.28;4928066;29;20059;-74
2023/01/11 12:24:18;;;;;;;6.97;3.92;;;10.60;99.90;;;-146.68;100.00;58542.28;4920057;29;20515;-74
2023/01/11 12:27:15;;;;;;;3.35;2.30;;;9.90;99.90;;;-146.68;100.00;58542.28;4930694;29;20056;-73
2023/01/11 12:30:03;;;;;;;1.73;1.60;;;10.70;99.90;;;-146.68;100.00;58542.28;4930740;29;20103;-73
2023/01/11 12:33:04;;;;;;;3.80;1.80;;;10.70;99.90;;;-146.68;100.00;58542.28;4905974;29;20110;-73
2023/01/11 12:36:04;;;;;;;2.70;2.13;;;10.70;99.90;;;-146.68;100.00;58542.28;4946865;29;20039;-73
2023/01/11 12:38:42;;;;;;;4.35;2.35;;;10.90;99.90;;;-146.68;100.00;58542.28;4918882;29;20063;-74
2023/01/11 12:41:17;;;;;;;2.05;1.70;;;10.70;99.90;;;-146.68;100.00;58542.28;4950379;28;20066;-73
2023/01/11 12:44:30;;;;;;;2.78;1.50;;;10.80;99.90;;;-146.68;100.00;58542.28;4950678;29;20059;-74
2023/01/11 12:47:02;;;;;;;2.70;1.67;;;10.70;99.90;;;-146.68;100.00;58542.28;4949326;29;20522;-74
2023/01/11 12:49:58;;;;;;;3.10;2.75;;;10.70;99.90;;;-146.68;100.00;58542.28;4949262;29;20043;-73
2023/01/11 12:52:42;;;;;;;3.92;2.92;;;10.70;99.90;;;-146.68;100.00;58542.28;4918953;29;20118;-74
2023/01/11 12:55:24;;;;;;;5.43;4.28;;;10.80;99.90;;;-146.68;100.00;58542.28;4948543;28;20055;-73
2023/01/11 12:58:20;;;;;;;5.10;3.78;;;10.80;99.90;;;-146.68;100.00;58542.28;4948990;28;20427;-74
2023/01/11 13:01:35;;;;;;;5.13;4.40;;;10.70;99.90;;;-146.68;100.00;58542.28;4949829;28;20146;-73
2023/01/11 13:04:49;;;;;;;3.63;3.05;;;10.70;99.90;;;-146.68;100.00;58542.28;4929442;29;20512;-74
2023/01/11 13:08:09;;;;;;;4.80;2.25;;;10.70;99.90;;;-146.68;100.00;58542.28;4938863;29;20496;-73
2023/01/11 13:11:33;;;;;;;4.00;3.00;;;10.70;99.90;;;-146.68;100.00;58542.28;4929985;29;20062;-74
2023/01/11 13:14:38;;;;;;;3.67;2.83;;;10.80;99.90;;;-146.68;100.00;58542.28;4957602;28;20079;-73
2023/01/11 13:17:23;;;;;;;2.75;2.03;;;10.90;99.90;;;-146.68;100.00;58542.28;4965068;28;20078;-74
2023/01/11 13:20:25;;;;;;;3.88;2.63;;;10.90;99.90;;;-146.68;100.00;58542.28;4947853;28;20039;-73
2023/01/11 13:23:05;;;;;;;4.32;3.55;;;11.00;99.90;;;-146.68;100.00;58542.28;4945923;28;20059;-72
2023/01/11 13:25:38;;;;;;;5.10;2.95;;;11.00;99.90;;;-146.68;100.00;58542.28;4916133;29;20584;-71
2023/01/11 13:28:36;;;;;;;5.90;4.30;;;12.20;99.90;;;-146.68;100.00;58542.28;4920584;29;20518;-72
2023/01/11 13:31:08;;;;;;;2.65;2.03;;;11.10;99.90;;;-146.68;100.00;58542.28;4944662;28;20047;-73
2023/01/11 13:33:41;;;;;;;3.13;2.75;;;11.30;99.90;;;-146.68;100.00;58542.28;4924628;29;20054;-73
2023/01/11 13:36:20;;;;;;;3.47;2.65;;;11.00;99.90;;;-146.68;100.00;58542.28;4932864;29;20051;-73
2023/01/11 13:39:29;;;;;;;4.20;2.58;;;11.00;99.90;;;-146.68;100.00;58542.28;4937128;29;20063;-74
2023/01/11 13:42:12;;;;;;;2.15;1.73;;;11.00;99.90;;;-146.68;100.00;58542.28;4949653;28;20399;-73
2023/01/11 13:45:22;;;;;;;2.10;1.90;;;11.10;99.90;;;-146.68;100.00;58542.28;4917701;29;20457;-74
2023/01/11 13:48:04;;;;;;;2.97;2.38;;;11.10;99.90;;;-146.68;100.00;58542.28;4937748;29;20507;-74
2023/01/11 13:50:49;;;;;;;2.70;2.38;;;11.20;99.90;;;-146.68;100.00;58542.28;4932458;29;20054;-73
2023/01/11 13:53:42;;;;;;;2.70;2.40;;;11.10;99.90;;;-146.68;100.00;58542.28;4928485;29;20171;-73
2023/01/11 13:56:23;;;;;;;2.78;1.90;;;11.20;99.90;;;-146.68;100.00;58542.28;4931364;29;20054;-73
2023/01/11 13:59:31;;;;;;;3.60;2.40;;;11.20;99.90;;;-146.68;100.00;58542.28;4930987;29;20558;-74
2023/01/11 14:02:22;;;;;;;1.98;1.58;;;11.40;99.90;;;-146.68;100.00;58542.28;4919397;29;20051;-74
2023/01/11 14:05:18;;;;;;;4.63;2.20;;;11.50;99.90;;;-146.68;100.00;58542.28;4913856;29;20497;-74
2023/01/11 14:08:10;;;;;;;4.32;2.20;;;11.50;99.90;;;-146.68;100.00;58542.28;4940172;29;20043;-70
2023/01/11 14:10:53;;;;;;;1.92;1.52;;;11.60;99.90;;;-146.68;100.00;58542.28;4944560;28;20048;-72
2023/01/11 14:14:16;;;;;;;3.38;2.00;;;11.60;99.90;;;-146.68;100.00;58542.28;4943944;29;20613;-69
2023/01/11 14:17:16;;;;;;;2.42;2.22;;;11.60;99.90;;;-146.68;100.00;58542.28;4920774;28;20149;-73
2023/01/11 14:20:28;;;;;;;2.58;2.03;;;11.60;99.90;;;-146.68;100.00;58542.28;4952400;28;20043;-74
2023/01/11 14:23:18;;;;;;;2.90;1.90;;;11.50;99.90;;;-146.68;100.00;58542.28;4883889;29;20147;-74
2023/01/11 14:26:40;;;;;;;2.58;1.98;;;11.50;99.90;;;-146.68;100.00;58542.28;4939642;29;20462;-73
2023/01/11 14:29:27;;;;;;;2.88;2.13;;;11.40;99.90;;;-146.68;100.00;58542.28;4946922;29;20046;-73
2023/01/11 14:32:19;;;;;;;2.03;1.80;;;11.20;99.90;;;-146.68;100.00;58542.28;4933527;29;20059;-74
2023/01/11 14:35:27;;;;;;;4.03;1.88;;;11.30;99.90;;;-146.68;100.00;58542.28;4946671;29;20051;-74
2023/01/11 14:38:55;;;;;;;3.70;1.88;;;11.30;99.90;;;-146.68;100.00;58542.28;4946519;29;20051;-73
2023/01/11 14:41:31;;;;;;;1.70;1.58;;;11.30;99.90;;;-146.68;100.00;58542.28;4922911;29;20131;-73
2023/01/11 14:44:45;;;;;;;4.93;2.83;;;11.20;99.90;;;-146.68;100.00;58542.28;4923061;29;20792;-73
2023/01/11 14:48:07;;;;;;;2.40;1.85;;;11.20;99.90;;;-146.68;100.00;58542.28;4946379;28;20102;-73
2023/01/11 14:51:01;;;;;;;4.57;2.83;;;11.60;99.90;;;-146.68;100.00;58542.28;4908654;29;20139;-73
2023/01/11 14:53:35;;;;;;;3.70;3.20;;;11.10;99.90;;;-146.68;100.00;58542.28;4931181;29;20046;-73
2023/01/11 14:56:03;;;;;;;3.70;2.67;;;11.10;99.90;;;-146.68;100.00;58542.28;4947879;29;20051;-73
2023/01/11 14:58:31;;;;;;;4.05;2.65;;;11.10;99.90;;;-146.68;100.00;58542.28;4939113;29;20059;-73
2023/01/11 15:00:58;;;;;;;3.25;2.50;;;11.10;99.90;;;-146.68;100.00;58542.28;4951172;28;20055;-73
2023/01/11 15:03:41;;;;;;;3.75;2.58;;;11.10;99.90;;;-146.68;100.00;58542.28;4928344;29;20428;-72
2023/01/11 15:06:19;;;;;;;3.17;2.22;;;11.00;99.90;;;-146.68;100.00;58542.28;4951051;29;20146;-73
2023/01/11 15:08:50;;;;;;;2.45;2.20;;;11.10;99.90;;;-146.68;100.00;58542.28;4944795;29;20051;-73
2023/01/11 15:11:36;;;;;;;6.47;3.40;;;11.00;99.90;;;-146.68;100.00;58542.28;4951266;28;20051;-73
2023/01/11 15:14:27;;;;;;;6.45;3.95;;;10.90;99.90;;;-146.68;100.00;58542.28;4947152;29;20416;-73
2023/01/11 15:19:50;;;;;;;3.85;2.72;;;10.90;99.90;;;-146.68;100.00;58542.28;4939028;28;20424;-73
2023/01/11 15:22:30;;;;;;;;;;;10.80;99.90;;;-146.68;100.00;58542.28;4951502;29;20054;-73
2023/01/11 15:25:06;;;;;;;13.00;6.78;;;10.80;99.90;;;-146.68;100.00;58542.28;4950021;29;19926;-73
2023/01/11 15:27:37;;;;;;;11.30;5.43;;;10.80;99.90;;;-146.68;100.00;58542.28;4949980;29;20075;-73
2023/01/11 15:30:30;;;;;;;17.02;8.10;;;10.90;99.90;;;-146.68;100.00;58542.28;4930977;29;20058;-73
2023/01/11 15:33:17;;;;;;;22.08;9.35;;;10.70;99.90;;;-146.68;100.00;58542.28;4943504;29;20043;-73
2023/01/11 15:35:56;;;;;;;9.45;4.78;;;10.70;99.90;;;-146.68;100.00;58542.28;4966382;28;20654;-74
2023/01/11 15:38:51;;;;;;;5.75;3.25;;;10.60;99.90;;;-146.68;100.00;58542.28;4966179;28;20126;-73
2023/01/11 15:42:03;;;;;;;7.80;3.92;;;10.60;99.90;;;-146.68;100.00;58542.28;4935261;29;20431;-73
2023/01/11 15:45:23;;;;;;;8.57;4.28;;;10.60;99.90;;;-146.68;100.00;58542.28;4952094;28;20125;-73
2023/01/11 15:48:18;;;;;;;8.45;5.90;;;10.50;99.90;;;-146.68;100.00;58542.28;4951660;28;20054;-73
2023/01/11 15:51:16;;;;;;;12.20;5.05;;;10.40;99.90;;;-146.68;100.00;58542.28;4950509;29;20047;-72
2023/01/11 15:53:54;;;;;;;11.73;4.72;;;10.40;99.90;;;-146.68;100.00;58542.28;4909930;29;20127;-72
2023/01/11 15:57:00;;;;;;;10.95;5.30;;;10.40;99.90;;;-146.68;100.00;58542.28;4895958;29;20051;-72
2023/01/11 16:00:00;;;;;;;10.77;7.03;;;10.30;99.90;;;-146.68;100.00;58542.28;4896201;29;20499;-72
2023/01/11 16:02:36;;;;;;;17.40;8.07;;;10.30;99.90;;;-146.68;100.00;58542.28;4910078;29;20477;-72
2023/01/11 16:05:39;;;;;;;13.15;7.30;;;10.20;99.90;;;-146.68;100.00;58542.28;4910053;29;20077;-72
2023/01/11 16:08:42;;;;;;;11.07;5.28;;;10.30;99.90;;;-146.68;100.00;58542.28;4866222;29;20056;-72